LROD-ORADEA

Valid from:2018-05-22 22:30:00

METAR LROD 222230Z AUTO 11006KT 9999 NCD 16/14 Q1019=

Valid from:2018-05-22 14:00:00

TAF LROD 221400Z 2215/2224 VRB04KT 9999 SCT045=